Elissa — WDD9058 — position and weather

sailwx.info

Track history (hours):
 
Tides and Currents Weather Stations Pressure Air Temp Water Temp Dewpoint Dewpoint Depression Visibility Wind Speed Wind Dir Waves Ship Positions

Elissa

More information available from US FCC via Universal Licensing System and Coast Guard Vessel Documentation Center.

Last reported at 2014-Sep-01 22:33 UTC. Time now 2014-Sep-01 23:35 UTC.
Position N 29°59' W 090°25'.

Length 26 m; draft 3.6 m.

Type: Towing. MMSI: 367306290.

Date/timePositionNaut miles runAvg speedWind from/ knotsBaromVisibWave heightAir tempDewpointWater temp
2014-Sep-01 22:33N 29°59' W 090°25'4 3.8
2014-Sep-01 21:33N 29°56' W 090°22'5 3.6
2014-Sep-01 20:11N 29°58' W 090°17'1 0.1
2014-Sep-01 11:06N 29°58' W 090°16'4 7.7
2014-Sep-01 10:33N 29°56' W 090°20'5 5.4
2014-Sep-01 09:33N 29°59' W 090°25'0 0.4
2014-Sep-01 08:33N 29°60' W 090°25'4 4.3
2014-Sep-01 07:33N 30°03' W 090°29'5 4.7
2014-Sep-01 06:33N 30°03' W 090°34'5 4.5
2014-Sep-01 05:33N 30°03' W 090°39'5 5.3
2014-Sep-01 04:33N 30°01' W 090°45'4 3.9
2014-Sep-01 03:29N 30°00' W 090°50'4 1.8
2014-Sep-01 01:09N 30°04' W 090°53'6 0.1
2014-Aug-30 09:29N 29°59' W 090°49'4 3.7
2014-Aug-30 08:33N 30°01' W 090°46'4 3.7
2014-Aug-30 07:33N 30°02' W 090°42'3 3.5
2014-Aug-30 06:33N 30°02' W 090°38'4 3.7
2014-Aug-30 05:33N 30°03' W 090°34'3 2.9
2014-Aug-30 04:33N 30°03' W 090°30'0 0.0
2014-Aug-30 03:33N 30°03' W 090°30'2 1.8
2014-Aug-30 02:33N 30°02' W 090°29'3 3.4
2014-Aug-30 01:33N 29°60' W 090°26'1 1.0
2014-Aug-30 00:33N 29°59' W 090°25'0 0.1
2014-Aug-29 23:33N 29°59' W 090°25'0 0.2
2014-Aug-29 22:33N 29°59' W 090°25'0 0.4
2014-Aug-29 21:33N 29°59' W 090°25'3 2.6
2014-Aug-29 20:12N 29°57' W 090°22'8 0.4
2014-Aug-29 03:13N 30°02' W 090°28'2 3.4
2014-Aug-29 02:32N 30°03' W 090°31'0 0.2
2014-Aug-29 01:33N 30°03' W 090°31'5 5.1
2014-Aug-29 00:33N 30°02' W 090°37'10 5.0
2014-Aug-28 22:33N 29°60' W 090°48'20 1.0
2014-Aug-28 01:33N 30°12' W 091°07'29 2.7
2014-Aug-27 15:08N 30°02' W 090°36'3 5.1
2014-Aug-27 14:33N 30°03' W 090°33'4 3.7
2014-Aug-27 13:24N 30°01' W 090°28'3 3.9
2014-Aug-27 12:33N 29°59' W 090°25'0 0.2
2014-Aug-27 11:33N 29°59' W 090°25'1 0.8
2014-Aug-27 10:33N 29°59' W 090°24'4 4.2
2014-Aug-27 09:30N 29°56' W 090°21'5 4.7
2014-Aug-27 08:31N 29°58' W 090°16'3 0.8
2014-Aug-27 04:33N 29°56' W 090°19'6 6.4
2014-Aug-27 03:33N 29°60' W 090°25'0 0.1
2014-Aug-27 02:33N 29°60' W 090°25'3 3.3
2014-Aug-27 01:33N 30°02' W 090°28'6 5.8
2014-Aug-27 00:33N 30°03' W 090°35'6 5.7
2014-Aug-26 23:33N 30°02' W 090°41'6 6.3
2014-Aug-26 22:33N 29°60' W 090°48'2 0.0
2014-Aug-25 12:05N 29°60' W 090°50'2 4.0
2014-Aug-25 11:33N 29°60' W 090°47'5 5.5
2014-Aug-25 10:33N 30°02' W 090°42'5 5.0
2014-Aug-25 09:33N 30°03' W 090°36'5 4.7
2014-Aug-25 08:33N 30°03' W 090°30'0 0.0
2014-Aug-25 07:33N 30°03' W 090°30'0 0.0
2014-Aug-25 06:33N 30°03' W 090°30'2 1.9
2014-Aug-25 05:33N 30°02' W 090°28'4 4.2
2014-Aug-25 04:33N 29°59' W 090°25'5 4.9
2014-Aug-25 03:29N 29°56' W 090°20'0 0.0
2014-Aug-24 19:19N 29°56' W 090°20'6 7.5
2014-Aug-24 18:33N 29°60' W 090°25'1 0.6
2014-Aug-24 17:33N 29°60' W 090°26'6 5.9
2014-Aug-24 16:33N 30°03' W 090°32'7 5.8
2014-Aug-24 15:16N 30°03' W 090°40'5 6.8
2014-Aug-24 14:33N 30°01' W 090°45'9 2.1
2014-Aug-24 10:32N 30°04' W 090°54'0 0.0
2014-Aug-24 09:28N 30°04' W 090°54'0 0.0
2014-Aug-24 08:33N 30°04' W 090°54'4 3.5
2014-Aug-24 07:32N 30°08' W 090°55'6 5.2
2014-Aug-24 06:28N 30°07' W 091°02'1 0.4
2014-Aug-24 03:30N 30°07' W 091°01'1 1.3
2014-Aug-24 02:33N 30°08' W 091°01'  
Track history (hours):
 
Tides and Currents Weather Stations Pressure Air Temp Water Temp Dewpoint Dewpoint Depression Visibility Wind Speed Wind Dir Waves Ship Positions

Elissa

More information available from US FCC via Universal Licensing System and Coast Guard Vessel Documentation Center.

Last reported at 2014-Sep-01 22:33 UTC. Time now 2014-Sep-01 23:35 UTC.
Position N 29°59' W 090°25'.

Length 26 m; draft 3.6 m.

Type: Towing. MMSI: 367306290.

Date/timePositionNaut miles runAvg speedWind from/ knotsBaromVisibWave heightAir tempDewpointWater temp
2014-Sep-01 22:33N 29°59' W 090°25'4 3.8
2014-Sep-01 21:33N 29°56' W 090°22'5 3.6
2014-Sep-01 20:11N 29°58' W 090°17'1 0.1
2014-Sep-01 11:06N 29°58' W 090°16'4 7.7
2014-Sep-01 10:33N 29°56' W 090°20'5 5.4
2014-Sep-01 09:33N 29°59' W 090°25'0 0.4
2014-Sep-01 08:33N 29°60' W 090°25'4 4.3
2014-Sep-01 07:33N 30°03' W 090°29'5 4.7
2014-Sep-01 06:33N 30°03' W 090°34'5 4.5
2014-Sep-01 05:33N 30°03' W 090°39'5 5.3
2014-Sep-01 04:33N 30°01' W 090°45'4 3.9
2014-Sep-01 03:29N 30°00' W 090°50'4 1.8
2014-Sep-01 01:09N 30°04' W 090°53'6 0.1
2014-Aug-30 09:29N 29°59' W 090°49'4 3.7
2014-Aug-30 08:33N 30°01' W 090°46'4 3.7
2014-Aug-30 07:33N 30°02' W 090°42'3 3.5
2014-Aug-30 06:33N 30°02' W 090°38'4 3.7
2014-Aug-30 05:33N 30°03' W 090°34'3 2.9
2014-Aug-30 04:33N 30°03' W 090°30'0 0.0
2014-Aug-30 03:33N 30°03' W 090°30'2 1.8
2014-Aug-30 02:33N 30°02' W 090°29'3 3.4
2014-Aug-30 01:33N 29°60' W 090°26'1 1.0
2014-Aug-30 00:33N 29°59' W 090°25'0 0.1
2014-Aug-29 23:33N 29°59' W 090°25'0 0.2
2014-Aug-29 22:33N 29°59' W 090°25'0 0.4
2014-Aug-29 21:33N 29°59' W 090°25'3 2.6
2014-Aug-29 20:12N 29°57' W 090°22'8 0.4
2014-Aug-29 03:13N 30°02' W 090°28'2 3.4
2014-Aug-29 02:32N 30°03' W 090°31'0 0.2
2014-Aug-29 01:33N 30°03' W 090°31'5 5.1
2014-Aug-29 00:33N 30°02' W 090°37'10 5.0
2014-Aug-28 22:33N 29°60' W 090°48'20 1.0
2014-Aug-28 01:33N 30°12' W 091°07'29 2.7
2014-Aug-27 15:08N 30°02' W 090°36'3 5.1
2014-Aug-27 14:33N 30°03' W 090°33'4 3.7
2014-Aug-27 13:24N 30°01' W 090°28'3 3.9
2014-Aug-27 12:33N 29°59' W 090°25'0 0.2
2014-Aug-27 11:33N 29°59' W 090°25'1 0.8
2014-Aug-27 10:33N 29°59' W 090°24'4 4.2
2014-Aug-27 09:30N 29°56' W 090°21'5 4.7
2014-Aug-27 08:31N 29°58' W 090°16'3 0.8
2014-Aug-27 04:33N 29°56' W 090°19'6 6.4
2014-Aug-27 03:33N 29°60' W 090°25'0 0.1
2014-Aug-27 02:33N 29°60' W 090°25'3 3.3
2014-Aug-27 01:33N 30°02' W 090°28'6 5.8
2014-Aug-27 00:33N 30°03' W 090°35'6 5.7
2014-Aug-26 23:33N 30°02' W 090°41'6 6.3
2014-Aug-26 22:33N 29°60' W 090°48'2 0.0
2014-Aug-25 12:05N 29°60' W 090°50'2 4.0
2014-Aug-25 11:33N 29°60' W 090°47'5 5.5
2014-Aug-25 10:33N 30°02' W 090°42'5 5.0
2014-Aug-25 09:33N 30°03' W 090°36'5 4.7
2014-Aug-25 08:33N 30°03' W 090°30'0 0.0
2014-Aug-25 07:33N 30°03' W 090°30'0 0.0
2014-Aug-25 06:33N 30°03' W 090°30'2 1.9
2014-Aug-25 05:33N 30°02' W 090°28'4 4.2
2014-Aug-25 04:33N 29°59' W 090°25'5 4.9
2014-Aug-25 03:29N 29°56' W 090°20'0 0.0
2014-Aug-24 19:19N 29°56' W 090°20'6 7.5
2014-Aug-24 18:33N 29°60' W 090°25'1 0.6
2014-Aug-24 17:33N 29°60' W 090°26'6 5.9
2014-Aug-24 16:33N 30°03' W 090°32'7 5.8
2014-Aug-24 15:16N 30°03' W 090°40'5 6.8
2014-Aug-24 14:33N 30°01' W 090°45'9 2.1
2014-Aug-24 10:32N 30°04' W 090°54'0 0.0
2014-Aug-24 09:28N 30°04' W 090°54'0 0.0
2014-Aug-24 08:33N 30°04' W 090°54'4 3.5
2014-Aug-24 07:32N 30°08' W 090°55'6 5.2
2014-Aug-24 06:28N 30°07' W 091°02'1 0.4
2014-Aug-24 03:30N 30°07' W 091°01'1 1.3
2014-Aug-24 02:33N 30°08' W 091°01'  

Dump ship's entire track history